Time;durP1;ratioP1;P1;durP2;ratioP2;P2;SDS_P1;SDS_P2;PMS_P1;PMS_P2;Temp;Humidity;BMP_temperature;BMP_pressure;BME280_temperature;BME280_humidity;BME280_pressure;Samples;Min_cycle;Max_cycle;Signal;HPM_P1;HPM_P2
2022/12/25 00:02:05;;;;;;;19.92;2.97;;;;;;;;;;5073053;28;20127;-79
2022/12/25 00:04:32;;;;;;;14.65;2.72;;;;;;;;;;5092220;28;20068;-80
2022/12/25 00:06:58;;;;;;;15.00;3.20;;;;;;;;;;5091587;28;20143;-78
2022/12/25 00:09:25;;;;;;;16.38;2.67;;;;;;;;;;5070822;28;20040;-79
2022/12/25 00:11:51;;;;;;;12.13;2.22;;;;;;;;;;5069913;28;20040;-78
2022/12/25 00:14:18;;;;;;;13.45;2.45;;;;;;;;;;5069518;28;20401;-79
2022/12/25 00:16:44;;;;;;;16.45;3.20;;;;;;;;;;5088800;28;20048;-79
2022/12/25 00:19:10;;;;;;;17.33;3.67;;;;;;;;;;5092822;28;20054;-79
2022/12/25 00:21:37;;;;;;;18.67;3.10;;;;;;;;;;5091815;28;20052;-79
2022/12/25 00:24:03;;;;;;;26.67;3.78;;;;;;;;;;5090432;28;20116;-79
2022/12/25 00:26:30;;;;;;;16.45;3.10;;;;;;;;;;5072629;28;20048;-80
2022/12/25 00:28:59;;;;;;;14.95;3.05;;;;;;;;;;5091565;28;20044;-79
2022/12/25 00:31:25;;;;;;;9.57;2.90;;;;;;;;;;5089879;28;20116;-79
2022/12/25 00:33:52;;;;;;;14.95;2.72;;;;;;;;;;5090661;28;20051;-78
2022/12/25 00:36:22;;;;;;;27.48;4.18;;;;;;;;;;5072568;28;20052;-79
2022/12/25 00:38:49;;;;;;;20.20;2.85;;;;;;;;;;5092702;28;20094;-78
2022/12/25 00:41:16;;;;;;;17.52;2.70;;;;;;;;;;5091111;28;20051;-79
2022/12/25 00:43:43;;;;;;;17.00;3.17;;;;;;;;;;5092030;28;20079;-79
2022/12/25 00:46:11;;;;;;;14.95;3.28;;;;;;;;;;5096629;28;20063;-78
2022/12/25 00:48:37;;;;;;;13.38;3.00;;;;;;;;;;5075588;28;20041;-79
2022/12/25 00:51:05;;;;;;;17.15;3.28;;;;;;;;;;5070921;28;20048;-78
2022/12/25 00:53:32;;;;;;;26.83;4.32;;;;;;;;;;5088946;28;20071;-79
2022/12/25 00:55:59;;;;;;;19.80;3.40;;;;;;;;;;5088896;28;20488;-79
2022/12/25 00:58:27;;;;;;;13.70;3.30;;;;;;;;;;5089760;28;20413;-78
2022/12/25 01:00:55;;;;;;;23.38;3.88;;;;;;;;;;5081229;28;20163;-79
2022/12/25 01:03:21;;;;;;;19.52;3.67;;;;;;;;;;5069351;28;20136;-79
2022/12/25 01:05:58;;;;;;;19.40;3.88;;;;;;;;;;5054960;28;20059;-79
2022/12/25 01:08:26;;;;;;;19.70;4.00;;;;;;;;;;5074575;28;20040;-79
2022/12/25 01:10:56;;;;;;;23.55;3.90;;;;;;;;;;5072646;28;20483;-80
2022/12/25 01:13:23;;;;;;;22.60;4.32;;;;;;;;;;5072647;28;20460;-80
2022/12/25 01:15:53;;;;;;;18.67;3.65;;;;;;;;;;5084962;28;20546;-80
2022/12/25 01:18:21;;;;;;;17.85;3.50;;;;;;;;;;5095152;28;20048;-80
2022/12/25 01:20:47;;;;;;;22.20;5.13;;;;;;;;;;5094947;28;20132;-79
2022/12/25 01:23:14;;;;;;;12.73;3.10;;;;;;;;;;5094760;28;20052;-79
2022/12/25 01:25:42;;;;;;;22.75;3.88;;;;;;;;;;5094096;28;20474;-80
2022/12/25 01:28:08;;;;;;;30.90;3.85;;;;;;;;;;5096046;28;20048;-80
2022/12/25 01:30:34;;;;;;;18.63;3.13;;;;;;;;;;5094273;28;20396;-79
2022/12/25 01:33:01;;;;;;;23.02;4.30;;;;;;;;;;5075748;28;20071;-80
2022/12/25 01:35:27;;;;;;;23.00;3.58;;;;;;;;;;5094713;28;20099;-77
2022/12/25 01:37:54;;;;;;;21.80;3.90;;;;;;;;;;5093575;28;20511;-78
2022/12/25 01:40:20;;;;;;;23.70;3.55;;;;;;;;;;5093168;28;20492;-78
2022/12/25 01:42:47;;;;;;;17.38;3.72;;;;;;;;;;5093278;28;20052;-78
2022/12/25 01:45:16;;;;;;;19.67;3.75;;;;;;;;;;5094082;28;20062;-77
2022/12/25 01:47:42;;;;;;;10.60;2.90;;;;;;;;;;5092687;28;20052;-78
2022/12/25 01:50:09;;;;;;;6.35;2.70;;;;;;;;;;5093877;28;20040;-78
2022/12/25 01:52:35;;;;;;;16.38;3.80;;;;;;;;;;5093801;28;20044;-77
2022/12/25 01:55:05;;;;;;;22.73;3.85;;;;;;;;;;5096088;28;20097;-78
2022/12/25 01:57:32;;;;;;;13.23;3.50;;;;;;;;;;5075192;28;20064;-78
2022/12/25 02:00:00;;;;;;;10.73;2.80;;;;;;;;;;5054899;28;20049;-78
2022/12/25 02:02:27;;;;;;;15.35;3.45;;;;;;;;;;5071910;28;20335;-75
2022/12/25 02:05:02;;;;;;;14.32;4.15;;;;;;;;;;5054214;28;20064;-78
2022/12/25 02:07:33;;;;;;;14.27;3.10;;;;;;;;;;5076581;28;20059;-78
2022/12/25 02:10:00;;;;;;;22.27;3.97;;;;;;;;;;5054764;28;20044;-77
2022/12/25 02:12:27;;;;;;;16.77;3.38;;;;;;;;;;5073200;28;20060;-76
2022/12/25 02:14:55;;;;;;;17.63;3.83;;;;;;;;;;5073853;28;20079;-78
2022/12/25 02:17:33;;;;;;;21.85;3.90;;;;;;;;;;5072346;28;20049;-79
2022/12/25 02:19:59;;;;;;;22.23;3.53;;;;;;;;;;5074831;28;20211;-78
2022/12/25 02:22:32;;;;;;;19.48;3.97;;;;;;;;;;5056748;28;20064;-77
2022/12/25 02:25:08;;;;;;;18.42;4.22;;;;;;;;;;5074963;28;20052;-78
2022/12/25 02:27:43;;;;;;;22.48;4.03;;;;;;;;;;5074683;28;20045;-78
2022/12/25 02:30:10;;;;;;;32.47;4.45;;;;;;;;;;5057193;28;20140;-78
2022/12/25 02:32:50;;;;;;;27.88;5.03;;;;;;;;;;5072563;28;20098;-78
2022/12/25 02:35:29;;;;;;;22.33;4.60;;;;;;;;;;5075407;28;20220;-79
2022/12/25 02:38:06;;;;;;;21.90;4.50;;;;;;;;;;5075268;28;20466;-78
2022/12/25 02:40:37;;;;;;;13.40;3.95;;;;;;;;;;5074507;28;20140;-78
2022/12/25 03:08:08;;;;;;;18.23;4.40;;;;;;;;;;5080639;28;20054;-78
2022/12/25 03:13:24;;;;;;;21.25;4.68;;;;;;;;;;5071279;28;20044;-77
2022/12/25 03:18:36;;;;;;;16.77;5.00;;;;;;;;;;5072237;28;20084;-78
2022/12/25 03:32:18;;;;;;;20.98;4.25;;;;;;;;;;5069887;28;20048;-78
2022/12/25 04:38:32;;;;;;;15.70;4.97;;;;;;;;;;5072468;28;20047;-79
2022/12/25 04:40:59;;;;;;;20.60;5.45;;;;;;;;;;5054878;28;20049;-79
2022/12/25 04:43:29;;;;;;;28.95;5.75;;;;;;;;;;5074884;28;20048;-79
2022/12/25 04:45:56;;;;;;;19.33;5.35;;;;;;;;;;5073515;28;20049;-79
2022/12/25 04:48:22;;;;;;;21.00;5.88;;;;;;;;;;5075512;28;20052;-78
2022/12/25 04:50:49;;;;;;;27.33;7.05;;;;;;;;;;5074746;28;20189;-79
2022/12/25 04:53:16;;;;;;;29.70;7.70;;;;;;;;;;5074709;28;20052;-78
2022/12/25 04:55:42;;;;;;;26.33;8.93;;;;;;;;;;5074566;28;20053;-79
2022/12/25 04:58:09;;;;;;;26.90;8.55;;;;;;;;;;5074648;28;20508;-78
2022/12/25 05:00:38;;;;;;;33.58;9.35;;;;;;;;;;5074756;28;20059;-79
2022/12/25 05:03:04;;;;;;;33.20;9.80;;;;;;;;;;5055677;28;20063;-79
2022/12/25 05:05:31;;;;;;;32.22;12.20;;;;;;;;;;5075297;28;20060;-79
2022/12/25 05:07:57;;;;;;;42.67;14.15;;;;;;;;;;5075534;28;20045;-79
2022/12/25 05:10:24;;;;;;;50.13;16.67;;;;;;;;;;5073549;28;20044;-79
2022/12/25 05:12:50;;;;;;;31.05;12.73;;;;;;;;;;5074272;28;20044;-79
2022/12/25 05:15:17;;;;;;;36.08;12.60;;;;;;;;;;5068014;28;20112;-78
2022/12/25 05:17:43;;;;;;;41.72;13.70;;;;;;;;;;5073664;28;20054;-79
2022/12/25 05:20:09;;;;;;;43.33;13.73;;;;;;;;;;5075340;28;20044;-78
2022/12/25 05:22:36;;;;;;;36.20;13.80;;;;;;;;;;5073755;28;20052;-79
2022/12/25 05:25:02;;;;;;;35.08;12.30;;;;;;;;;;5074514;28;20062;-79
2022/12/25 05:27:29;;;;;;;35.25;12.30;;;;;;;;;;5074845;28;20067;-78
2022/12/25 05:29:55;;;;;;;35.70;11.93;;;;;;;;;;5056059;28;20298;-79
2022/12/25 05:32:21;;;;;;;30.05;11.02;;;;;;;;;;5073121;28;20056;-78
2022/12/25 05:34:48;;;;;;;32.63;9.82;;;;;;;;;;5074757;28;20052;-79
2022/12/25 05:37:14;;;;;;;26.15;9.25;;;;;;;;;;5074060;28;20049;-79
2022/12/25 05:39:40;;;;;;;27.27;9.30;;;;;;;;;;5074390;28;20053;-77
2022/12/25 05:42:07;;;;;;;24.20;8.95;;;;;;;;;;5073231;28;20048;-79
2022/12/25 05:44:33;;;;;;;25.80;9.63;;;;;;;;;;5072401;28;20055;-79
2022/12/25 05:46:59;;;;;;;28.25;7.75;;;;;;;;;;5073020;28;20121;-79
2022/12/25 05:49:26;;;;;;;19.08;7.07;;;;;;;;;;5073864;28;20098;-79
2022/12/25 05:51:52;;;;;;;24.23;7.03;;;;;;;;;;5073698;28;20041;-79
2022/12/25 05:54:18;;;;;;;19.65;7.18;;;;;;;;;;5060098;28;20395;-79
2022/12/25 05:56:45;;;;;;;21.27;7.10;;;;;;;;;;5073961;28;20059;-78
2022/12/25 05:59:11;;;;;;;15.80;5.93;;;;;;;;;;5071544;28;20147;-78
2022/12/25 06:01:37;;;;;;;14.07;5.38;;;;;;;;;;5040942;28;20508;-78
2022/12/25 06:04:04;;;;;;;19.42;5.18;;;;;;;;;;5030244;28;20144;-78
2022/12/25 06:06:37;;;;;;;13.00;5.70;;;;;;;;;;5063817;28;20128;-79
2022/12/25 06:09:04;;;;;;;19.70;5.40;;;;;;;;;;5064131;28;20351;-77
2022/12/25 06:11:30;;;;;;;24.88;5.45;;;;;;;;;;5066737;28;20048;-78
2022/12/25 06:13:56;;;;;;;12.73;5.38;;;;;;;;;;5066800;28;20068;-79
2022/12/25 06:16:23;;;;;;;16.02;4.80;;;;;;;;;;5066857;28;20049;-78
2022/12/25 06:18:52;;;;;;;17.50;5.35;;;;;;;;;;5067465;28;20049;-78
2022/12/25 06:21:19;;;;;;;16.27;5.03;;;;;;;;;;5068446;28;20063;-78
2022/12/25 06:23:45;;;;;;;15.55;5.30;;;;;;;;;;5066616;28;20060;-79
2022/12/25 06:26:14;;;;;;;16.02;5.75;;;;;;;;;;5066006;28;20056;-78
2022/12/25 06:28:41;;;;;;;12.63;5.30;;;;;;;;;;5086229;28;20052;-78
2022/12/25 06:31:08;;;;;;;11.88;4.85;;;;;;;;;;5052732;28;20052;-79
2022/12/25 06:33:34;;;;;;;17.08;5.13;;;;;;;;;;5066784;28;20052;-78
2022/12/25 06:36:11;;;;;;;11.80;4.57;;;;;;;;;;5071167;28;20090;-80
2022/12/25 06:38:39;;;;;;;11.23;4.90;;;;;;;;;;5078782;28;20044;-79
2022/12/25 06:41:10;;;;;;;17.17;4.82;;;;;;;;;;5068246;28;20053;-79
2022/12/25 06:43:37;;;;;;;11.63;4.50;;;;;;;;;;5069493;28;20053;-78
2022/12/25 06:46:08;;;;;;;13.85;4.63;;;;;;;;;;5060006;28;20052;-78
2022/12/25 06:48:35;;;;;;;13.02;4.88;;;;;;;;;;5061280;28;20056;-79
2022/12/25 06:51:02;;;;;;;14.27;4.75;;;;;;;;;;5059420;28;20055;-78
2022/12/25 06:53:28;;;;;;;12.32;4.45;;;;;;;;;;5068547;28;20497;-79
2022/12/25 06:56:05;;;;;;;14.75;4.32;;;;;;;;;;5062241;28;20049;-79
2022/12/25 06:58:31;;;;;;;13.82;3.72;;;;;;;;;;5048962;28;20060;-79
2022/12/25 07:00:57;;;;;;;11.38;3.63;;;;;;;;;;5066975;28;20052;-79
2022/12/25 07:03:26;;;;;;;11.35;3.88;;;;;;;;;;5066865;28;20052;-79
2022/12/25 07:05:52;;;;;;;10.20;3.80;;;;;;;;;;5067361;28;20101;-79
2022/12/25 07:08:19;;;;;;;14.35;4.30;;;;;;;;;;5067047;28;20510;-78
2022/12/25 07:10:45;;;;;;;14.65;4.32;;;;;;;;;;5062934;28;20236;-77
2022/12/25 07:13:11;;;;;;;13.73;4.28;;;;;;;;;;5068362;28;20048;-78
2022/12/25 07:15:38;;;;;;;16.90;4.22;;;;;;;;;;5066480;28;20084;-78
2022/12/25 07:18:06;;;;;;;14.32;4.40;;;;;;;;;;5069229;28;20156;-79
2022/12/25 07:20:33;;;;;;;15.27;3.70;;;;;;;;;;5065318;28;20049;-79
2022/12/25 07:22:59;;;;;;;13.05;3.72;;;;;;;;;;5049139;28;20071;-79
2022/12/25 07:25:25;;;;;;;13.07;3.70;;;;;;;;;;5067887;28;20062;-77
2022/12/25 07:27:58;;;;;;;10.55;3.88;;;;;;;;;;5068898;28;20083;-78
2022/12/25 07:30:25;;;;;;;12.95;4.00;;;;;;;;;;5066573;28;20056;-78
2022/12/25 07:32:51;;;;;;;12.40;4.00;;;;;;;;;;5067159;28;20497;-79
2022/12/25 07:35:18;;;;;;;12.23;3.95;;;;;;;;;;5068154;28;20049;-78
2022/12/25 07:37:44;;;;;;;16.88;4.22;;;;;;;;;;5069091;28;20063;-78
2022/12/25 07:40:11;;;;;;;8.05;3.75;;;;;;;;;;5067945;28;20052;-78
2022/12/25 07:42:37;;;;;;;9.88;4.03;;;;;;;;;;5066684;28;20432;-78
2022/12/25 07:45:04;;;;;;;13.60;4.22;;;;;;;;;;5070097;28;20063;-78
2022/12/25 07:47:30;;;;;;;18.60;4.35;;;;;;;;;;5069425;28;20052;-78
2022/12/25 07:49:57;;;;;;;12.27;3.90;;;;;;;;;;5067882;28;20045;-79
2022/12/25 07:52:23;;;;;;;10.23;4.05;;;;;;;;;;5067990;28;20048;-79
2022/12/25 07:54:50;;;;;;;14.10;4.50;;;;;;;;;;5048398;28;20048;-78
2022/12/25 07:57:16;;;;;;;12.57;5.10;;;;;;;;;;5066081;28;20054;-78
2022/12/25 07:59:42;;;;;;;13.90;4.70;;;;;;;;;;5066214;28;20093;-80
2022/12/25 08:02:10;;;;;;;12.02;4.28;;;;;;;;;;5066870;28;20052;-79
2022/12/25 08:04:36;;;;;;;12.57;4.53;;;;;;;;;;5067439;28;20140;-79
2022/12/25 08:07:03;;;;;;;14.70;4.93;;;;;;;;;;5081119;28;20325;-79
2022/12/25 08:09:29;;;;;;;13.35;4.57;;;;;;;;;;5075088;28;20055;-79
2022/12/25 08:11:56;;;;;;;13.63;5.35;;;;;;;;;;5067920;28;20051;-79
2022/12/25 08:14:22;;;;;;;16.27;4.72;;;;;;;;;;5065444;28;20045;-77
2022/12/25 08:16:48;;;;;;;14.18;5.25;;;;;;;;;;5077052;28;20052;-80
2022/12/25 08:19:15;;;;;;;15.65;5.95;;;;;;;;;;5074676;28;20233;-80
2022/12/25 08:21:41;;;;;;;19.00;6.13;;;;;;;;;;5085340;28;20052;-78
2022/12/25 08:24:08;;;;;;;26.33;6.50;;;;;;;;;;5072841;28;20552;-79
2022/12/25 08:26:34;;;;;;;15.07;6.72;;;;;;;;;;5068119;28;20481;-79
2022/12/25 08:29:00;;;;;;;16.90;6.60;;;;;;;;;;5072418;28;20471;-78
2022/12/25 08:31:28;;;;;;;15.63;6.53;;;;;;;;;;5059519;28;20059;-80
2022/12/25 08:33:55;;;;;;;12.20;5.03;;;;;;;;;;5090781;28;20048;-81
2022/12/25 08:36:22;;;;;;;13.85;4.32;;;;;;;;;;5087394;28;20070;-81
2022/12/25 08:38:49;;;;;;;10.73;3.75;;;;;;;;;;5069747;28;20584;-77
2022/12/25 08:41:15;;;;;;;15.98;3.72;;;;;;;;;;5069498;28;20491;-79
2022/12/25 08:43:42;;;;;;;12.15;2.97;;;;;;;;;;5069935;28;20351;-80
2022/12/25 08:46:09;;;;;;;11.77;3.30;;;;;;;;;;5069343;28;20055;-78
2022/12/25 08:48:35;;;;;;;7.28;2.90;;;;;;;;;;5071073;28;20411;-79
2022/12/25 08:51:02;;;;;;;12.73;3.08;;;;;;;;;;5070363;28;20044;-78
2022/12/25 08:53:28;;;;;;;10.13;3.45;;;;;;;;;;5069471;28;20137;-79
2022/12/25 08:55:59;;;;;;;12.88;3.72;;;;;;;;;;5069445;28;20095;-80
2022/12/25 08:58:26;;;;;;;12.68;3.45;;;;;;;;;;5067508;28;20091;-77
2022/12/25 09:00:53;;;;;;;10.90;3.55;;;;;;;;;;5022348;28;20053;-80
2022/12/25 09:03:20;;;;;;;13.68;3.53;;;;;;;;;;5069224;28;20546;-80
2022/12/25 09:05:46;;;;;;;7.43;2.65;;;;;;;;;;5070178;28;20116;-79
2022/12/25 09:08:12;;;;;;;7.63;2.22;;;;;;;;;;5078214;28;20074;-79
2022/12/25 09:10:39;;;;;;;7.30;2.50;;;;;;;;;;5068911;28;20427;-80
2022/12/25 09:13:06;;;;;;;10.93;2.40;;;;;;;;;;5068954;28;20321;-80
2022/12/25 09:15:32;;;;;;;8.93;3.40;;;;;;;;;;5080643;28;20048;-79
2022/12/25 09:17:59;;;;;;;8.88;3.90;;;;;;;;;;5069545;28;20056;-80
2022/12/25 09:20:25;;;;;;;9.50;3.75;;;;;;;;;;5070112;28;20247;-80
2022/12/25 09:22:51;;;;;;;8.35;4.10;;;;;;;;;;5066450;28;20064;-78
2022/12/25 09:25:18;;;;;;;6.47;2.50;;;;;;;;;;5068687;28;20767;-79
2022/12/25 09:27:44;;;;;;;8.88;2.60;;;;;;;;;;5075880;28;20063;-80
2022/12/25 09:30:10;;;;;;;6.53;2.53;;;;;;;;;;5069520;28;20113;-80
2022/12/25 09:32:39;;;;;;;7.22;3.05;;;;;;;;;;5068072;28;20126;-80
2022/12/25 09:35:08;;;;;;;12.30;3.65;;;;;;;;;;5066988;28;20060;-80
2022/12/25 09:37:35;;;;;;;5.57;2.75;;;;;;;;;;5070296;28;20113;-79
2022/12/25 09:40:01;;;;;;;6.18;2.65;;;;;;;;;;5069783;28;20330;-81
2022/12/25 09:42:30;;;;;;;7.65;2.63;;;;;;;;;;5068690;28;20134;-77
2022/12/25 09:44:59;;;;;;;6.88;2.80;;;;;;;;;;5068878;28;20112;-80
2022/12/25 09:47:28;;;;;;;6.25;2.88;;;;;;;;;;5068382;28;20071;-80
2022/12/25 09:49:54;;;;;;;5.47;2.60;;;;;;;;;;5068077;28;20250;-80
2022/12/25 09:52:23;;;;;;;8.35;3.00;;;;;;;;;;5068664;28;20052;-77
2022/12/25 09:55:07;;;;;;;6.63;2.67;;;;;;;;;;5069890;28;20056;-80
2022/12/25 09:57:33;;;;;;;8.57;3.00;;;;;;;;;;5085808;28;20108;-81
2022/12/25 10:00:00;;;;;;;10.43;3.50;;;;;;;;;;5088766;28;20113;-80
2022/12/25 10:02:29;;;;;;;7.38;3.05;;;;;;;;;;5081729;28;20049;-77
2022/12/25 10:04:56;;;;;;;6.85;3.03;;;;;;;;;;5080281;28;20159;-79
2022/12/25 10:07:22;;;;;;;7.97;3.05;;;;;;;;;;5068694;28;20048;-81
2022/12/25 10:09:49;;;;;;;8.45;3.00;;;;;;;;;;5067781;28;20175;-78
2022/12/25 10:12:26;;;;;;;10.40;3.20;;;;;;;;;;5066818;28;20281;-79
2022/12/25 10:15:11;;;;;;;6.97;2.72;;;;;;;;;;5050707;28;20109;-79
2022/12/25 10:17:47;;;;;;;6.57;2.47;;;;;;;;;;5052094;28;20094;-79
2022/12/25 10:20:13;;;;;;;;;;;;;;;;;;5070927;28;20458;-78
2022/12/25 10:22:42;;;;;;;8.00;2.50;;;;;;;;;;5067693;28;20036;-77
2022/12/25 10:25:14;;;;;;;6.35;2.58;;;;;;;;;;5064078;28;20059;-79
2022/12/25 10:27:41;;;;;;;9.20;2.40;;;;;;;;;;5070422;28;20054;-79
2022/12/25 10:30:15;;;;;;;8.35;2.92;;;;;;;;;;5069441;28;20056;-79
2022/12/25 10:32:42;;;;;;;12.00;2.72;;;;;;;;;;5068391;28;20070;-78
2022/12/25 10:35:13;;;;;;;15.02;3.13;;;;;;;;;;5068623;28;20135;-78
2022/12/25 10:37:40;;;;;;;7.93;2.60;;;;;;;;;;5067773;28;20191;-79
2022/12/25 10:40:25;;;;;;;6.72;2.70;;;;;;;;;;5066680;28;20294;-80
2022/12/25 10:42:54;;;;;;;7.37;2.90;;;;;;;;;;5076583;28;20127;-81
2022/12/25 10:45:20;;;;;;;9.20;2.63;;;;;;;;;;5068727;28;20318;-80
2022/12/25 10:47:47;;;;;;;8.95;2.78;;;;;;;;;;5060651;28;20052;-80
2022/12/25 10:50:23;;;;;;;9.68;2.80;;;;;;;;;;5089913;28;20406;-80
2022/12/25 10:53:00;;;;;;;8.85;2.65;;;;;;;;;;5082335;28;20075;-80
2022/12/25 10:55:27;;;;;;;10.93;2.72;;;;;;;;;;5069038;28;20052;-80
2022/12/25 10:57:56;;;;;;;5.97;2.38;;;;;;;;;;5068884;28;20048;-81
2022/12/25 11:00:28;;;;;;;6.88;2.38;;;;;;;;;;5051186;28;20102;-80
2022/12/25 11:02:54;;;;;;;6.78;2.50;;;;;;;;;;5055389;28;20056;-79
2022/12/25 11:05:24;;;;;;;8.98;2.50;;;;;;;;;;5088076;28;20104;-78
2022/12/25 11:07:54;;;;;;;9.18;2.65;;;;;;;;;;5078557;28;20048;-79
2022/12/25 11:10:30;;;;;;;8.70;2.60;;;;;;;;;;5067074;28;20726;-78
2022/12/25 11:12:56;;;;;;;;;;;;;;;;;;5051568;28;20128;-78
2022/12/25 11:15:35;;;;;;;7.95;2.35;;;;;;;;;;5064420;28;19927;-80
2022/12/25 11:18:03;;;;;;;14.88;2.92;;;;;;;;;;5067525;28;20457;-81
2022/12/25 11:20:29;;;;;;;9.90;3.33;;;;;;;;;;5068739;28;20055;-79
2022/12/25 11:22:56;;;;;;;9.10;2.60;;;;;;;;;;5077651;28;20059;-80
2022/12/25 11:25:24;;;;;;;9.95;2.80;;;;;;;;;;5066508;28;20052;-77
2022/12/25 11:27:57;;;;;;;13.23;2.67;;;;;;;;;;5076586;28;20066;-79
2022/12/25 11:30:23;;;;;;;7.57;2.50;;;;;;;;;;5069622;28;20052;-76
2022/12/25 11:32:54;;;;;;;8.85;2.75;;;;;;;;;;5075324;28;20056;-78
2022/12/25 11:35:24;;;;;;;6.90;2.35;;;;;;;;;;5081575;28;20056;-80
2022/12/25 11:37:51;;;;;;;8.27;2.83;;;;;;;;;;5082913;28;20056;-78
2022/12/25 11:40:19;;;;;;;10.52;2.67;;;;;;;;;;5067719;28;20456;-79
2022/12/25 11:42:48;;;;;;;11.25;3.25;;;;;;;;;;5068817;28;20262;-80
2022/12/25 11:45:17;;;;;;;10.18;3.10;;;;;;;;;;5067342;28;20433;-80
2022/12/25 11:47:43;;;;;;;10.75;2.90;;;;;;;;;;5066509;28;20479;-80
2022/12/25 11:50:28;;;;;;;7.57;2.92;;;;;;;;;;5066748;28;20045;-80
2022/12/25 11:52:56;;;;;;;11.43;2.78;;;;;;;;;;5066644;28;20056;-81
2022/12/25 11:55:43;;;;;;;11.07;2.72;;;;;;;;;;5066480;28;20053;-78
2022/12/25 11:58:12;;;;;;;7.45;2.58;;;;;;;;;;5069190;28;20048;-81
2022/12/25 12:00:40;;;;;;;9.93;3.20;;;;;;;;;;5070242;28;20056;-80
2022/12/25 12:03:19;;;;;;;9.10;2.70;;;;;;;;;;5067156;28;20052;-81
2022/12/25 12:05:58;;;;;;;9.40;2.80;;;;;;;;;;5065841;28;20059;-79
2022/12/25 12:08:25;;;;;;;8.77;2.58;;;;;;;;;;5076860;28;20451;-80
2022/12/25 12:11:17;;;;;;;8.68;2.33;;;;;;;;;;5066073;28;20048;-81
2022/12/25 12:14:01;;;;;;;11.32;2.60;;;;;;;;;;5068320;28;20532;-80
2022/12/25 12:16:28;;;;;;;7.78;2.20;;;;;;;;;;5066500;28;20074;-80
2022/12/25 12:18:54;;;;;;;7.93;2.13;;;;;;;;;;5066741;28;20458;-79
2022/12/25 12:21:30;;;;;;;7.10;2.20;;;;;;;;;;5067805;28;20048;-79
2022/12/25 12:24:15;;;;;;;7.05;1.92;;;;;;;;;;5072771;28;20056;-79
2022/12/25 12:26:43;;;;;;;9.95;2.17;;;;;;;;;;5067552;28;20064;-79
2022/12/25 12:29:21;;;;;;;11.57;2.30;;;;;;;;;;5059018;28;20380;-79
2022/12/25 12:31:48;;;;;;;7.00;2.25;;;;;;;;;;5044539;28;20048;-79
2022/12/25 12:34:23;;;;;;;5.35;2.17;;;;;;;;;;5067127;28;20066;-80
2022/12/25 12:36:53;;;;;;;6.18;2.30;;;;;;;;;;5067391;28;20139;-81
2022/12/25 12:39:24;;;;;;;9.88;2.35;;;;;;;;;;5066463;28;20048;-81
2022/12/25 12:41:51;;;;;;;5.68;2.00;;;;;;;;;;5065636;28;20397;-82
2022/12/25 12:44:20;;;;;;;6.28;1.92;;;;;;;;;;5064133;28;20131;-81
2022/12/25 12:46:51;;;;;;;5.75;2.05;;;;;;;;;;5047616;28;20053;-80
2022/12/25 12:49:24;;;;;;;8.25;2.30;;;;;;;;;;5065298;28;20060;-80
2022/12/25 12:52:09;;;;;;;9.13;2.05;;;;;;;;;;5067722;28;20062;-81
2022/12/25 12:54:50;;;;;;;5.72;1.80;;;;;;;;;;5066191;28;20533;-80
2022/12/25 12:57:28;;;;;;;4.85;1.90;;;;;;;;;;5067415;28;20064;-80
2022/12/25 12:59:55;;;;;;;6.13;2.10;;;;;;;;;;5047645;28;20140;-81
2022/12/25 13:02:40;;;;;;;6.82;2.03;;;;;;;;;;5049893;28;20053;-80
2022/12/25 13:05:26;;;;;;;6.38;1.70;;;;;;;;;;5060634;28;20048;-80
2022/12/25 13:08:08;;;;;;;5.65;1.73;;;;;;;;;;5071464;28;20176;-80
2022/12/25 13:10:37;;;;;;;3.92;1.30;;;;;;;;;;5062833;28;20476;-79
2022/12/25 13:13:05;;;;;;;3.65;1.25;;;;;;;;;;5070376;28;20078;-80
2022/12/25 13:15:33;;;;;;;3.03;0.95;;;;;;;;;;5083510;28;20156;-81
2022/12/25 13:18:01;;;;;;;3.83;1.00;;;;;;;;;;5088411;28;20126;-80
2022/12/25 13:20:46;;;;;;;3.85;1.15;;;;;;;;;;5071063;28;20067;-80
2022/12/25 13:23:14;;;;;;;3.53;1.27;;;;;;;;;;5071806;28;20044;-81
2022/12/25 13:25:40;;;;;;;4.68;1.48;;;;;;;;;;5070187;28;20052;-80
2022/12/25 13:28:12;;;;;;;3.70;1.17;;;;;;;;;;5070639;28;20060;-77
2022/12/25 13:30:38;;;;;;;2.88;1.30;;;;;;;;;;5070944;28;20393;-79
2022/12/25 13:33:05;;;;;;;1.58;1.00;;;;;;;;;;5070431;28;20052;-79
2022/12/25 13:35:31;;;;;;;2.97;1.20;;;;;;;;;;5084803;28;20580;-80
2022/12/25 13:37:57;;;;;;;5.60;1.48;;;;;;;;;;5074894;28;20059;-82
2022/12/25 13:40:25;;;;;;;2.03;1.27;;;;;;;;;;5071431;28;20071;-80
2022/12/25 13:42:59;;;;;;;4.30;1.30;;;;;;;;;;5069795;28;20054;-80
2022/12/25 13:45:28;;;;;;;3.60;1.30;;;;;;;;;;5081654;28;20131;-81
2022/12/25 13:47:54;;;;;;;2.97;1.17;;;;;;;;;;5054907;28;20143;-80
2022/12/25 13:50:24;;;;;;;6.07;1.40;;;;;;;;;;5070929;28;20044;-80
2022/12/25 13:52:51;;;;;;;3.92;1.45;;;;;;;;;;5074661;28;20059;-80
2022/12/25 13:55:25;;;;;;;4.55;1.58;;;;;;;;;;5082603;28;20381;-79
2022/12/25 13:57:56;;;;;;;4.00;1.20;;;;;;;;;;5076743;28;20061;-79
2022/12/25 14:00:24;;;;;;;4.22;1.30;;;;;;;;;;5089674;28;20059;-79
2022/12/25 14:02:51;;;;;;;4.53;1.40;;;;;;;;;;5072258;28;20080;-79
2022/12/25 14:05:21;;;;;;;2.08;1.08;;;;;;;;;;5083719;28;20401;-79
2022/12/25 14:07:52;;;;;;;2.63;1.13;;;;;;;;;;5076585;28;20045;-79
2022/12/25 14:10:19;;;;;;;2.17;1.00;;;;;;;;;;5052179;28;20056;-80
2022/12/25 14:12:48;;;;;;;2.67;1.25;;;;;;;;;;5051769;28;20567;-79
2022/12/25 14:15:16;;;;;;;2.08;1.20;;;;;;;;;;5080216;28;20416;-79
2022/12/25 14:17:43;;;;;;;2.40;1.40;;;;;;;;;;5075939;28;20056;-80
2022/12/25 14:20:21;;;;;;;4.38;1.40;;;;;;;;;;5070020;28;20059;-78
2022/12/25 14:22:50;;;;;;;4.57;1.45;;;;;;;;;;5068914;28;20056;-79
2022/12/25 14:25:16;;;;;;;3.53;1.38;;;;;;;;;;5060451;28;20074;-80
2022/12/25 14:27:47;;;;;;;3.15;1.30;;;;;;;;;;5068649;28;20056;-78
2022/12/25 14:30:13;;;;;;;4.28;1.67;;;;;;;;;;5088977;28;20074;-80
2022/12/25 14:32:42;;;;;;;2.70;1.30;;;;;;;;;;5075100;28;20334;-78
2022/12/25 14:35:09;;;;;;;4.32;1.38;;;;;;;;;;5054619;28;20048;-80
2022/12/25 14:37:37;;;;;;;2.33;1.15;;;;;;;;;;5056198;28;20055;-80
2022/12/25 14:40:05;;;;;;;4.93;1.33;;;;;;;;;;5090159;28;20055;-80
2022/12/25 14:42:33;;;;;;;3.58;1.55;;;;;;;;;;5089193;28;20059;-78
2022/12/25 14:45:00;;;;;;;3.20;1.40;;;;;;;;;;5082267;28;20084;-78
2022/12/25 14:47:26;;;;;;;3.58;1.90;;;;;;;;;;5064045;28;20054;-80
2022/12/25 14:49:53;;;;;;;3.10;1.52;;;;;;;;;;5070370;28;20054;-79
2022/12/25 14:52:19;;;;;;;4.70;1.30;;;;;;;;;;5051989;28;20133;-78
2022/12/25 14:54:57;;;;;;;4.00;1.60;;;;;;;;;;5057103;28;20058;-78
2022/12/25 14:57:32;;;;;;;2.95;1.40;;;;;;;;;;5070010;28;20383;-79
2022/12/25 15:00:05;;;;;;;5.82;1.48;;;;;;;;;;5069250;28;20135;-79
2022/12/25 15:02:37;;;;;;;3.40;1.30;;;;;;;;;;5068299;28;20510;-81
2022/12/25 15:05:04;;;;;;;2.47;1.30;;;;;;;;;;5068474;28;20131;-80
2022/12/25 15:07:30;;;;;;;3.05;1.30;;;;;;;;;;5067621;28;20051;-78
2022/12/25 15:09:57;;;;;;;3.75;1.23;;;;;;;;;;5067957;28;20086;-80
2022/12/25 15:12:43;;;;;;;1.95;1.23;;;;;;;;;;5054806;28;20076;-80
2022/12/25 15:15:10;;;;;;;6.20;1.50;;;;;;;;;;5078466;28;20139;-80
2022/12/25 15:17:37;;;;;;;2.97;1.42;;;;;;;;;;5078644;28;20086;-80
2022/12/25 15:20:05;;;;;;;2.28;1.30;;;;;;;;;;5087331;28;20468;-80
2022/12/25 15:22:33;;;;;;;1.73;1.00;;;;;;;;;;5087974;28;20079;-80
2022/12/25 15:25:20;;;;;;;3.45;1.70;;;;;;;;;;5072379;28;20068;-79
2022/12/25 15:27:47;;;;;;;2.17;1.40;;;;;;;;;;5067856;28;20055;-80
2022/12/25 15:30:13;;;;;;;2.92;1.70;;;;;;;;;;5049167;28;20131;-80
2022/12/25 15:32:40;;;;;;;3.45;1.60;;;;;;;;;;5041634;28;20049;-81
2022/12/25 15:35:12;;;;;;;3.75;1.30;;;;;;;;;;5078539;28;20044;-80
2022/12/25 15:37:38;;;;;;;2.38;1.38;;;;;;;;;;5093925;28;20048;-80
2022/12/25 15:40:05;;;;;;;2.72;1.30;;;;;;;;;;5077624;28;20144;-80
2022/12/25 15:42:32;;;;;;;2.22;1.30;;;;;;;;;;5081180;28;20045;-80
2022/12/25 15:44:58;;;;;;;3.55;1.80;;;;;;;;;;5087564;28;20166;-80
2022/12/25 15:47:27;;;;;;;1.70;1.30;;;;;;;;;;5089039;28;20051;-79
2022/12/25 15:49:53;;;;;;;2.90;1.40;;;;;;;;;;5067832;28;20076;-79
2022/12/25 15:52:19;;;;;;;2.17;1.27;;;;;;;;;;5067425;28;20052;-80
2022/12/25 15:54:46;;;;;;;3.88;1.92;;;;;;;;;;5073106;28;20071;-80
2022/12/25 15:57:17;;;;;;;4.70;1.55;;;;;;;;;;5068621;28;20131;-81
2022/12/25 15:59:43;;;;;;;6.68;1.55;;;;;;;;;;5079051;28;20051;-80
2022/12/25 16:02:13;;;;;;;3.67;1.60;;;;;;;;;;5064293;28;20071;-80
2022/12/25 16:04:41;;;;;;;2.67;1.42;;;;;;;;;;5072227;28;20054;-80
2022/12/25 16:07:14;;;;;;;4.00;1.70;;;;;;;;;;5085462;28;20100;-80
2022/12/25 16:09:44;;;;;;;6.30;1.60;;;;;;;;;;5048954;28;20472;-81
2022/12/25 16:12:11;;;;;;;5.60;2.40;;;;;;;;;;5067676;28;20063;-79
2022/12/25 16:14:37;;;;;;;6.55;2.88;;;;;;;;;;5075293;28;20066;-81
2022/12/25 16:17:04;;;;;;;4.20;2.13;;;;;;;;;;5071196;28;20055;-81
2022/12/25 16:19:30;;;;;;;6.38;2.22;;;;;;;;;;5078183;28;20059;-79
2022/12/25 16:21:57;;;;;;;5.68;2.10;;;;;;;;;;5083740;28;20270;-81
2022/12/25 16:24:23;;;;;;;6.13;2.10;;;;;;;;;;5081554;28;20051;-81
2022/12/25 16:26:50;;;;;;;4.50;2.40;;;;;;;;;;5084502;28;20071;-81
2022/12/25 16:29:16;;;;;;;7.55;2.58;;;;;;;;;;5083501;28;20052;-82
2022/12/25 16:31:42;;;;;;;6.97;2.22;;;;;;;;;;5085945;28;20037;-81